Time;durP1;ratioP1;P1;durP2;ratioP2;P2;SDS_P1;SDS_P2;PMS_P1;PMS_P2;Temp;Humidity;BMP_temperature;BMP_pressure;BME280_temperature;BME280_humidity;BME280_pressure;Samples;Min_cycle;Max_cycle;Signal;HPM_P1;HPM_P2
2022/06/09 00:00:10;;;;;;;3.22;0.98;;;16.80;66.40;;;;;;4951783;29;20043;-82
2022/06/09 00:02:37;;;;;;;4.75;1.40;;;16.80;66.30;;;;;;4956149;28;20453;-82
2022/06/09 00:05:06;;;;;;;8.40;1.45;;;16.80;66.10;;;;;;4939432;28;20483;-82
2022/06/09 00:07:37;;;;;;;7.65;1.38;;;16.70;66.80;;;;;;4937131;29;20086;-82
2022/06/09 00:10:10;;;;;;;7.43;1.30;;;16.60;67.40;;;;;;4937066;29;20031;-82
2022/06/09 00:12:36;;;;;;;7.55;1.88;;;16.60;67.20;;;;;;4939123;29;20027;-82
2022/06/09 00:15:05;;;;;;;7.28;1.40;;;16.50;67.40;;;;;;4956291;28;20031;-82
2022/06/09 00:17:31;;;;;;;4.50;1.30;;;16.50;67.10;;;;;;4954459;28;20098;-82
2022/06/09 00:19:57;;;;;;;4.00;1.35;;;16.50;67.30;;;;;;4955923;28;20121;-82
2022/06/09 00:22:23;;;;;;;6.95;1.52;;;16.40;67.50;;;;;;4952604;28;20031;-82
2022/06/09 00:24:49;;;;;;;5.55;1.40;;;16.50;67.30;;;;;;4936730;29;20042;-82
2022/06/09 00:27:15;;;;;;;4.60;1.13;;;16.50;67.60;;;;;;4936643;29;20024;-82
2022/06/09 00:29:41;;;;;;;6.40;1.65;;;16.40;67.40;;;;;;4936829;29;20032;-82
2022/06/09 00:32:08;;;;;;;5.85;1.40;;;16.30;67.70;;;;;;4939740;29;20102;-82
2022/06/09 00:34:34;;;;;;;9.60;1.48;;;16.30;67.50;;;;;;4955924;28;20734;-82
2022/06/09 00:37:00;;;;;;;8.05;2.20;;;16.20;68.40;;;;;;4955599;28;20058;-82
2022/06/09 00:39:26;;;;;;;6.25;1.42;;;16.30;67.70;;;;;;4954491;28;20028;-82
2022/06/09 00:41:51;;;;;;;7.70;1.45;;;16.30;67.70;;;;;;4935971;29;20056;-81
2022/06/09 00:44:21;;;;;;;6.93;2.13;;;16.30;67.70;;;;;;4936493;29;20102;-82
2022/06/09 00:46:54;;;;;;;4.97;1.35;;;16.20;68.00;;;;;;4936699;29;20020;-82
2022/06/09 00:49:32;;;;;;;5.03;1.92;;;16.30;67.60;;;;;;4936691;29;20032;-82
2022/06/09 00:52:01;;;;;;;2.38;1.30;;;16.30;67.60;;;;;;4936490;29;20139;-82
2022/06/09 00:54:38;;;;;;;4.82;1.88;;;16.30;67.50;;;;;;4936150;29;20039;-82
2022/06/09 00:57:20;;;;;;;3.90;1.45;;;16.30;67.70;;;;;;4944826;29;20111;-81
2022/06/09 00:59:51;;;;;;;6.20;1.77;;;16.30;67.90;;;;;;4936317;29;20039;-82
2022/06/09 01:02:19;;;;;;;10.00;2.05;;;16.30;68.20;;;;;;4936319;29;20036;-82
2022/06/09 01:04:52;;;;;;;6.95;1.65;;;16.40;68.20;;;;;;4936351;29;20038;-81
2022/06/09 01:07:35;;;;;;;9.07;1.92;;;16.40;67.90;;;;;;4936221;29;20016;-81
2022/06/09 01:10:18;;;;;;;7.28;2.28;;;16.50;68.10;;;;;;4936358;29;20031;-82
2022/06/09 01:12:46;;;;;;;6.13;1.98;;;16.40;67.90;;;;;;4935761;29;20737;-82
2022/06/09 01:15:19;;;;;;;6.60;1.90;;;16.50;67.90;;;;;;4936223;29;20031;-82
2022/06/09 01:17:53;;;;;;;4.30;1.52;;;16.60;67.60;;;;;;4936204;29;20027;-82
2022/06/09 01:20:40;;;;;;;8.35;1.58;;;16.50;67.80;;;;;;4940472;29;20086;-82
2022/06/09 01:23:09;;;;;;;5.65;1.40;;;16.50;67.40;;;;;;4955347;29;20035;-82
2022/06/09 01:25:37;;;;;;;6.35;1.83;;;16.50;67.80;;;;;;4948363;28;20063;-82
2022/06/09 01:28:38;;;;;;;6.72;1.60;;;16.30;68.40;;;;;;4936050;29;20035;-82
2022/06/09 01:31:07;;;;;;;6.60;1.85;;;16.30;68.60;;;;;;4926398;29;20040;-82
2022/06/09 01:34:03;;;;;;;9.65;1.83;;;16.30;68.10;;;;;;4948332;29;20063;-82
2022/06/09 01:36:44;;;;;;;3.45;1.17;;;16.30;68.60;;;;;;4955131;28;20024;-82
2022/06/09 01:39:10;;;;;;;9.65;1.95;;;16.30;68.30;;;;;;4945140;28;20024;-82
2022/06/09 01:41:36;;;;;;;6.80;1.38;;;16.40;68.30;;;;;;4935845;29;20040;-82
2022/06/09 01:44:03;;;;;;;5.28;1.45;;;16.40;68.30;;;;;;4934937;29;20086;-82
2022/06/09 01:46:31;;;;;;;6.80;1.23;;;16.30;68.80;;;;;;4936043;29;20023;-81
2022/06/09 01:49:12;;;;;;;6.68;1.73;;;16.30;68.90;;;;;;4935925;29;20847;-82
2022/06/09 01:51:41;;;;;;;7.65;1.60;;;16.30;69.10;;;;;;4935813;29;20032;-82
2022/06/09 01:54:32;;;;;;;5.60;1.55;;;16.30;68.50;;;;;;4950066;29;20042;-82
2022/06/09 01:57:17;;;;;;;9.27;1.42;;;16.40;68.20;;;;;;4958771;28;20086;-82
2022/06/09 01:59:49;;;;;;;4.13;1.65;;;16.30;68.80;;;;;;4944568;28;20040;-82
2022/06/09 02:02:21;;;;;;;5.40;1.48;;;16.30;69.00;;;;;;4954371;28;20035;-82
2022/06/09 02:04:51;;;;;;;4.70;1.50;;;16.30;68.90;;;;;;4939542;29;20039;-82
2022/06/09 02:07:20;;;;;;;5.45;2.28;;;16.30;69.20;;;;;;4939216;29;20110;-81
2022/06/09 02:09:46;;;;;;;6.32;1.67;;;16.30;69.00;;;;;;4947071;29;20408;-82
2022/06/09 02:12:18;;;;;;;9.48;2.00;;;16.30;68.50;;;;;;4958268;28;20019;-82
2022/06/09 02:14:50;;;;;;;6.10;1.90;;;16.30;69.00;;;;;;4957563;28;20054;-82
2022/06/09 02:17:16;;;;;;;11.40;1.90;;;16.30;69.00;;;;;;4939108;29;20028;-82
2022/06/09 02:19:42;;;;;;;6.78;2.13;;;16.30;68.80;;;;;;4953696;28;20502;-82
2022/06/09 02:22:11;;;;;;;5.53;1.85;;;16.30;69.00;;;;;;4957496;29;20023;-82
2022/06/09 02:24:37;;;;;;;9.32;2.03;;;16.30;68.90;;;;;;4956771;28;20038;-82
2022/06/09 02:27:03;;;;;;;5.63;1.67;;;16.30;69.00;;;;;;4957661;28;20024;-82
2022/06/09 02:29:28;;;;;;;11.23;1.98;;;16.30;69.50;;;;;;4949229;28;20032;-82
2022/06/09 02:31:55;;;;;;;5.63;1.75;;;16.20;69.30;;;;;;4953859;29;20039;-82
2022/06/09 02:34:21;;;;;;;7.75;1.65;;;16.30;69.40;;;;;;4957967;28;20090;-82
2022/06/09 02:36:47;;;;;;;8.63;1.90;;;16.20;70.30;;;;;;4948752;28;20058;-82
2022/06/09 02:39:12;;;;;;;5.30;1.90;;;16.10;70.00;;;;;;4938744;29;20048;-82
2022/06/09 02:41:40;;;;;;;13.32;2.20;;;16.00;70.70;;;;;;4953258;28;20524;-82
2022/06/09 02:44:06;;;;;;;5.22;2.20;;;16.10;70.10;;;;;;4938561;29;20028;-82
2022/06/09 02:46:32;;;;;;;8.40;2.30;;;16.10;70.30;;;;;;4938124;29;20075;-82
2022/06/09 02:48:58;;;;;;;6.53;2.00;;;16.10;70.10;;;;;;4937500;29;20036;-82
2022/06/09 02:51:33;;;;;;;7.35;1.80;;;16.10;70.40;;;;;;4938611;29;20059;-82
2022/06/09 02:54:05;;;;;;;8.23;1.90;;;16.00;70.40;;;;;;4953184;29;20039;-81
2022/06/09 02:56:31;;;;;;;4.78;1.58;;;16.00;70.30;;;;;;4953540;29;20027;-81
2022/06/09 02:58:57;;;;;;;8.70;2.30;;;16.00;70.70;;;;;;4938378;29;20117;-81
2022/06/09 03:01:24;;;;;;;11.95;2.13;;;16.00;70.70;;;;;;4938257;29;20038;-82
2022/06/09 03:03:50;;;;;;;11.55;1.98;;;16.00;71.10;;;;;;4937977;29;20047;-82
2022/06/09 03:06:16;;;;;;;5.38;2.00;;;16.00;71.00;;;;;;4937847;29;20031;-82
2022/06/09 03:08:41;;;;;;;6.72;1.95;;;15.90;71.20;;;;;;4938049;29;20103;-82
2022/06/09 03:11:10;;;;;;;9.20;1.90;;;15.90;71.00;;;;;;4938174;29;20040;-82
2022/06/09 03:13:37;;;;;;;4.63;1.95;;;15.90;71.10;;;;;;4940087;29;20039;-82
2022/06/09 03:16:03;;;;;;;8.45;1.88;;;15.80;71.80;;;;;;4957154;28;20025;-82
2022/06/09 03:18:29;;;;;;;9.13;2.17;;;15.80;71.90;;;;;;4957080;28;20035;-82
2022/06/09 03:20:54;;;;;;;6.68;2.10;;;15.70;72.00;;;;;;4952739;28;20042;-82
2022/06/09 03:23:20;;;;;;;8.00;1.90;;;15.80;71.90;;;;;;4952473;29;20042;-82
2022/06/09 03:25:46;;;;;;;4.80;1.73;;;15.80;71.90;;;;;;4950747;29;20089;-82
2022/06/09 03:28:12;;;;;;;9.15;2.05;;;15.80;72.00;;;;;;4956841;28;20078;-81
2022/06/09 03:30:37;;;;;;;5.53;1.80;;;15.70;72.10;;;;;;4957066;28;20027;-82
2022/06/09 03:33:03;;;;;;;8.73;1.80;;;15.70;72.50;;;;;;4956951;28;20039;-82
2022/06/09 03:35:29;;;;;;;5.13;1.50;;;15.70;72.50;;;;;;4955201;28;20027;-82
2022/06/09 03:37:56;;;;;;;13.30;1.95;;;15.70;72.60;;;;;;4957052;28;20035;-82
2022/06/09 03:40:24;;;;;;;7.45;1.67;;;15.60;73.00;;;;;;4956676;28;20453;-81
2022/06/09 03:42:50;;;;;;;10.18;1.63;;;15.40;73.50;;;;;;4954481;28;20043;-81
2022/06/09 03:45:16;;;;;;;4.93;1.38;;;15.40;73.60;;;;;;4937567;29;20055;-82
2022/06/09 03:47:42;;;;;;;5.65;1.88;;;15.50;73.50;;;;;;4937394;29;20020;-81
2022/06/09 03:50:13;;;;;;;8.18;1.33;;;15.50;73.30;;;;;;4937533;29;20039;-82
2022/06/09 03:52:39;;;;;;;7.53;1.67;;;15.40;73.90;;;;;;4937460;29;20059;-82
2022/06/09 03:55:05;;;;;;;7.20;1.60;;;15.30;74.20;;;;;;4937500;29;20039;-81
2022/06/09 03:57:30;;;;;;;9.10;1.92;;;15.30;74.40;;;;;;4936816;29;20517;-82
2022/06/09 03:59:56;;;;;;;6.90;1.63;;;15.20;74.90;;;;;;4937132;29;20042;-82
2022/06/09 04:02:23;;;;;;;4.25;1.58;;;15.20;74.90;;;;;;4937236;29;20087;-82
2022/06/09 04:04:49;;;;;;;7.22;2.22;;;15.30;74.40;;;;;;4938608;29;20114;-82
2022/06/09 04:07:15;;;;;;;9.70;1.77;;;15.40;74.10;;;;;;4935782;29;20451;-81
2022/06/09 04:09:41;;;;;;;3.38;1.25;;;15.40;74.10;;;;;;4937100;29;20102;-82
2022/06/09 04:12:07;;;;;;;4.05;1.13;;;15.30;74.40;;;;;;4938661;29;20028;-82
2022/06/09 04:14:32;;;;;;;8.85;1.73;;;15.30;74.80;;;;;;4956188;28;20042;-82
2022/06/09 04:16:58;;;;;;;5.65;1.20;;;15.30;75.00;;;;;;4954874;28;20031;-82
2022/06/09 04:19:24;;;;;;;4.80;1.50;;;15.30;74.80;;;;;;4948351;28;20031;-82
2022/06/09 04:21:50;;;;;;;7.72;1.48;;;15.30;75.20;;;;;;4952783;29;20062;-82
2022/06/09 04:24:18;;;;;;;5.95;1.20;;;15.30;75.40;;;;;;4954918;28;20031;-82
2022/06/09 04:26:44;;;;;;;4.55;1.50;;;15.30;75.30;;;;;;4955826;28;20023;-82
2022/06/09 04:29:12;;;;;;;3.40;1.52;;;15.50;74.90;;;;;;4955026;28;20035;-82
2022/06/09 04:31:39;;;;;;;8.80;1.88;;;15.60;74.50;;;;;;4936803;29;20032;-82
2022/06/09 04:34:04;;;;;;;6.80;1.80;;;15.70;74.70;;;;;;4953815;29;20045;-82
2022/06/09 04:36:30;;;;;;;5.57;1.42;;;15.70;74.80;;;;;;4953476;28;20106;-81
2022/06/09 04:38:56;;;;;;;6.15;2.20;;;15.60;75.10;;;;;;4945394;29;20520;-82
2022/06/09 04:41:22;;;;;;;9.05;2.30;;;15.70;74.90;;;;;;4954648;28;20051;-82
2022/06/09 04:43:49;;;;;;;5.00;1.60;;;15.60;75.20;;;;;;4945029;28;20036;-79
2022/06/09 04:46:19;;;;;;;9.13;1.70;;;15.70;75.40;;;;;;4936462;29;20023;-81
2022/06/09 04:48:44;;;;;;;6.78;1.77;;;15.70;75.40;;;;;;4936452;29;20449;-79
2022/06/09 04:51:16;;;;;;;8.98;1.58;;;15.70;75.40;;;;;;4937823;29;20083;-79
2022/06/09 04:53:42;;;;;;;8.98;1.90;;;15.80;75.30;;;;;;4951583;28;20695;-78
2022/06/09 04:56:09;;;;;;;16.00;2.47;;;15.80;75.30;;;;;;4936213;29;20032;-79
2022/06/09 04:58:38;;;;;;;12.63;1.65;;;15.90;75.10;;;;;;4936284;29;20106;-79
2022/06/09 05:01:12;;;;;;;8.35;1.83;;;15.90;74.90;;;;;;4936027;29;20027;-79
2022/06/09 05:03:38;;;;;;;9.30;1.67;;;16.00;74.70;;;;;;4943298;29;20028;-80
2022/06/09 05:06:04;;;;;;;4.30;1.70;;;16.20;74.20;;;;;;4955218;28;20066;-80
2022/06/09 05:08:30;;;;;;;10.48;2.13;;;16.20;74.10;;;;;;4954122;28;20482;-82
2022/06/09 05:10:55;;;;;;;8.27;1.50;;;16.30;74.00;;;;;;4954953;29;20035;-81
2022/06/09 05:13:21;;;;;;;8.32;1.65;;;16.30;73.60;;;;;;4953974;28;20495;-82
2022/06/09 05:15:55;;;;;;;16.17;2.10;;;16.30;73.60;;;;;;4955552;28;20023;-81
2022/06/09 05:18:24;;;;;;;9.20;1.75;;;16.40;73.70;;;;;;4950824;29;20046;-82
2022/06/09 05:20:50;;;;;;;7.65;1.48;;;16.30;74.10;;;;;;4952625;28;20062;-79
2022/06/09 05:23:20;;;;;;;8.10;1.90;;;16.30;73.70;;;;;;4937907;28;20119;-80
2022/06/09 05:25:50;;;;;;;8.00;1.95;;;16.30;74.00;;;;;;4955650;28;20036;-80
2022/06/09 05:28:18;;;;;;;5.63;2.10;;;16.30;73.80;;;;;;4947931;29;20102;-80
2022/06/09 05:30:45;;;;;;;10.50;1.80;;;16.40;73.60;;;;;;4956613;28;20099;-82
2022/06/09 05:33:11;;;;;;;10.23;1.92;;;16.50;73.30;;;;;;4951507;29;20019;-82
2022/06/09 05:35:38;;;;;;;14.93;2.03;;;16.60;73.30;;;;;;4963948;28;20043;-83
2022/06/09 05:46:17;;;;;;;7.93;1.50;;;16.70;73.20;;;;;;4949202;29;20035;-80
2022/06/09 05:48:43;;;;;;;7.45;1.63;;;16.80;73.20;;;;;;4942684;29;20020;-80
2022/06/09 05:51:11;;;;;;;10.82;1.58;;;16.80;73.40;;;;;;4956678;28;20043;-80
2022/06/09 05:53:36;;;;;;;11.82;1.90;;;16.80;72.90;;;;;;4955366;28;20114;-80
2022/06/09 05:56:06;;;;;;;3.88;1.27;;;16.80;72.60;;;;;;4938524;29;20051;-81
2022/06/09 05:58:33;;;;;;;6.75;1.27;;;16.90;72.80;;;;;;4939355;29;20475;-81
2022/06/09 06:01:00;;;;;;;8.00;2.10;;;17.00;72.80;;;;;;4953860;29;20612;-81
2022/06/09 06:03:26;;;;;;;12.10;2.10;;;17.10;72.30;;;;;;4937834;29;20564;-81
2022/06/09 06:08:37;;;;;;;7.40;1.83;;;17.20;71.90;;;;;;4938599;29;20039;-81
2022/06/09 06:11:02;;;;;;;11.00;1.90;;;17.30;71.60;;;;;;4942905;29;20019;-81
2022/06/09 06:13:28;;;;;;;16.58;2.33;;;17.40;71.50;;;;;;4966951;28;20036;-81
2022/06/09 06:15:54;;;;;;;6.40;1.60;;;17.40;71.40;;;;;;4939319;29;20292;-81
2022/06/09 06:18:19;;;;;;;9.80;1.73;;;17.50;71.10;;;;;;4939081;29;20063;-81
2022/06/09 06:20:45;;;;;;;8.95;1.80;;;17.60;71.20;;;;;;4946520;29;20756;-81
2022/06/09 06:23:10;;;;;;;8.48;1.88;;;17.50;71.30;;;;;;4955637;28;20043;-81
2022/06/09 06:25:36;;;;;;;7.28;1.80;;;17.60;71.30;;;;;;4958007;28;20026;-81
2022/06/09 06:28:02;;;;;;;10.23;1.80;;;17.60;71.10;;;;;;4957904;28;20019;-82
2022/06/09 06:30:28;;;;;;;8.63;1.88;;;17.60;71.10;;;;;;4945159;28;20032;-81
2022/06/09 06:32:55;;;;;;;5.28;1.63;;;17.70;70.90;;;;;;4961251;28;20265;-81
2022/06/09 06:35:20;;;;;;;7.38;1.70;;;17.80;70.70;;;;;;4956755;28;20055;-81
2022/06/09 06:37:46;;;;;;;10.20;2.28;;;17.80;70.40;;;;;;4957824;28;20454;-80
2022/06/09 06:40:14;;;;;;;7.43;1.65;;;17.70;71.30;;;;;;4940626;28;20086;-81
2022/06/09 06:42:40;;;;;;;8.27;1.65;;;17.80;71.30;;;;;;4960991;28;20055;-81
2022/06/09 06:45:06;;;;;;;11.15;1.73;;;17.90;70.90;;;;;;4954251;29;20035;-81
2022/06/09 06:47:32;;;;;;;4.93;1.40;;;18.10;70.20;;;;;;4956222;28;20028;-81
2022/06/09 06:49:58;;;;;;;6.10;1.38;;;18.30;69.50;;;;;;4956537;28;20038;-81
2022/06/09 06:52:23;;;;;;;8.50;1.80;;;18.60;68.90;;;;;;4952713;28;20031;-79
2022/06/09 06:54:50;;;;;;;8.43;1.70;;;18.80;68.00;;;;;;4953140;29;20035;-81
2022/06/09 06:57:15;;;;;;;9.65;1.50;;;18.80;68.10;;;;;;4949708;29;20046;-79
2022/06/09 06:59:41;;;;;;;7.22;1.70;;;18.90;67.70;;;;;;4951179;28;20527;-81
2022/06/09 07:02:09;;;;;;;9.40;2.10;;;18.90;67.60;;;;;;4972125;28;20440;-81
2022/06/09 07:04:35;;;;;;;13.80;2.13;;;18.80;67.70;;;;;;4956114;28;20023;-81
2022/06/09 07:07:01;;;;;;;11.50;1.83;;;18.70;67.90;;;;;;4957294;28;20035;-81
2022/06/09 07:09:26;;;;;;;12.05;1.70;;;18.70;67.90;;;;;;4957178;29;20509;-81
2022/06/09 07:11:52;;;;;;;7.55;1.75;;;18.60;67.80;;;;;;4952270;28;20040;-81
2022/06/09 07:14:17;;;;;;;7.22;1.80;;;18.60;67.50;;;;;;4952503;28;20020;-79
2022/06/09 07:16:43;;;;;;;9.52;1.60;;;18.70;68.10;;;;;;4956602;28;20690;-80
2022/06/09 07:19:09;;;;;;;7.20;1.90;;;18.70;68.00;;;;;;4965032;28;20032;-81
2022/06/09 07:21:34;;;;;;;7.80;2.22;;;18.80;67.70;;;;;;4951530;29;20034;-81
2022/06/09 07:24:00;;;;;;;10.88;1.48;;;18.80;67.50;;;;;;4956966;28;20374;-80
2022/06/09 07:26:27;;;;;;;8.80;1.42;;;18.90;67.50;;;;;;4940916;28;20086;-80
2022/06/09 07:28:52;;;;;;;6.50;1.73;;;18.90;67.40;;;;;;4937410;29;20032;-80
2022/06/09 07:31:18;;;;;;;7.65;1.80;;;19.00;67.30;;;;;;4946474;29;20421;-81
2022/06/09 07:33:44;;;;;;;7.55;1.80;;;19.00;66.50;;;;;;4955215;28;20561;-80
2022/06/09 07:36:13;;;;;;;7.20;2.05;;;19.10;66.30;;;;;;4954883;29;20031;-80
2022/06/09 07:38:39;;;;;;;8.25;1.60;;;19.20;66.00;;;;;;4950296;28;20571;-80
2022/06/09 07:41:06;;;;;;;7.65;1.50;;;19.30;65.50;;;;;;4936959;29;20131;-79
2022/06/09 07:43:32;;;;;;;10.10;1.80;;;19.40;64.80;;;;;;4937154;29;20036;-79
2022/06/09 07:45:58;;;;;;;7.38;1.55;;;19.50;64.50;;;;;;4937259;29;20034;-80
2022/06/09 07:48:23;;;;;;;13.45;2.10;;;19.70;63.90;;;;;;4937063;29;20027;-80
2022/06/09 07:50:50;;;;;;;11.85;1.90;;;19.90;63.30;;;;;;4935271;29;20572;-79
2022/06/09 07:53:18;;;;;;;4.00;1.40;;;20.20;62.60;;;;;;4956110;28;20114;-79
2022/06/09 07:55:44;;;;;;;8.27;1.42;;;20.60;61.50;;;;;;4953818;29;20044;-79
2022/06/09 07:58:10;;;;;;;7.00;2.22;;;20.80;60.90;;;;;;4955921;29;20107;-81
2022/06/09 08:00:36;;;;;;;3.42;1.73;;;20.80;60.70;;;;;;4954908;28;20129;-81
2022/06/09 08:03:04;;;;;;;6.00;1.17;;;20.80;60.30;;;;;;4955970;28;20059;-82
2022/06/09 08:05:31;;;;;;;6.97;1.65;;;20.80;60.40;;;;;;4953503;28;20568;-82
2022/06/09 08:07:57;;;;;;;10.05;1.70;;;21.00;60.80;;;;;;4955631;28;20094;-81
2022/06/09 08:10:26;;;;;;;9.45;1.60;;;21.10;60.30;;;;;;4942340;28;20032;-80
2022/06/09 08:12:59;;;;;;;8.15;1.90;;;21.30;59.80;;;;;;4969407;28;20031;-81
2022/06/09 08:15:27;;;;;;;10.75;1.80;;;21.70;58.60;;;;;;4935861;29;20091;-81
2022/06/09 08:17:54;;;;;;;6.95;1.92;;;22.10;57.20;;;;;;4950329;29;20070;-82
2022/06/09 08:20:20;;;;;;;9.00;1.60;;;22.30;56.20;;;;;;4951387;28;20031;-81
2022/06/09 08:22:46;;;;;;;10.43;1.70;;;22.40;56.20;;;;;;4945958;28;20035;-81
2022/06/09 08:25:15;;;;;;;9.07;2.10;;;22.40;55.80;;;;;;4948370;29;20078;-81
2022/06/09 08:27:41;;;;;;;12.82;2.08;;;22.40;55.50;;;;;;4961316;28;20038;-81
2022/06/09 08:30:10;;;;;;;8.85;1.50;;;22.60;55.00;;;;;;4945363;29;20111;-81
2022/06/09 08:32:36;;;;;;;11.82;1.90;;;22.40;54.40;;;;;;4940791;28;20030;-81
2022/06/09 08:35:04;;;;;;;8.45;1.60;;;22.50;55.10;;;;;;4936359;29;20078;-80
2022/06/09 08:37:30;;;;;;;11.60;3.38;;;22.60;54.60;;;;;;4936545;29;20032;-81
2022/06/09 08:39:55;;;;;;;11.45;2.25;;;23.20;53.40;;;;;;4937156;29;20027;-82
2022/06/09 08:42:39;;;;;;;8.60;1.40;;;25.20;49.00;;;;;;4949560;28;20053;-82
2022/06/09 08:45:11;;;;;;;11.77;2.05;;;26.40;46.70;;;;;;4948733;29;20020;-82
2022/06/09 08:47:47;;;;;;;6.00;1.25;;;28.70;41.60;;;;;;4950754;29;20143;-80
2022/06/09 08:50:34;;;;;;;6.10;1.48;;;29.40;38.20;;;;;;4946158;29;20233;-82
2022/06/09 08:53:12;;;;;;;4.70;1.40;;;29.60;38.20;;;;;;4948619;29;20032;-80
2022/06/09 08:55:49;;;;;;;5.85;1.15;;;28.90;39.20;;;;;;4946135;29;20114;-80
2022/06/09 08:58:30;;;;;;;7.68;1.17;;;30.20;37.20;;;;;;4951262;29;20039;-82
2022/06/09 09:01:14;;;;;;;6.57;1.42;;;31.50;34.20;;;;;;4952637;29;20106;-81
2022/06/09 09:03:46;;;;;;;8.20;1.75;;;32.40;32.90;;;;;;4954192;29;20019;-81
2022/06/09 09:06:30;;;;;;;4.25;1.00;;;33.30;31.10;;;;;;4952923;29;20089;-80
2022/06/09 09:09:15;;;;;;;7.05;1.45;;;33.50;29.60;;;;;;4953037;28;20122;-81
2022/06/09 09:12:15;;;;;;;8.13;1.48;;;34.00;28.70;;;;;;4950711;29;20023;-81
2022/06/09 09:14:48;;;;;;;5.25;1.10;;;33.50;28.70;;;;;;4950952;29;20027;-81
2022/06/09 09:17:32;;;;;;;7.10;1.35;;;34.30;28.50;;;;;;4945559;29;20055;-81
2022/06/09 09:20:06;;;;;;;3.97;0.88;;;34.60;27.40;;;;;;4950541;29;20110;-81
2022/06/09 09:22:43;;;;;;;7.00;1.50;;;34.80;27.00;;;;;;4946525;29;20031;-80
2022/06/09 09:25:24;;;;;;;7.22;1.70;;;35.50;26.30;;;;;;4945908;29;20106;-80
2022/06/09 09:28:21;;;;;;;3.70;1.20;;;35.80;25.70;;;;;;4959650;28;20031;-80
2022/06/09 09:31:02;;;;;;;9.32;1.42;;;35.50;25.40;;;;;;4946227;29;20039;-80
2022/06/09 09:33:29;;;;;;;4.53;1.35;;;35.90;26.40;;;;;;4948730;29;20027;-80
2022/06/09 09:36:00;;;;;;;4.47;1.42;;;36.00;25.40;;;;;;4948260;29;20043;-80
2022/06/09 09:38:35;;;;;;;5.38;1.10;;;36.20;25.20;;;;;;4947007;29;20024;-80
2022/06/09 09:41:01;;;;;;;7.00;0.90;;;36.20;25.50;;;;;;4937778;28;20082;-80
2022/06/09 09:43:37;;;;;;;6.22;1.73;;;35.90;25.10;;;;;;4950437;29;20030;-80
2022/06/09 09:46:03;;;;;;;4.88;1.27;;;36.00;26.00;;;;;;4946224;29;20442;-80
2022/06/09 09:48:39;;;;;;;6.82;1.42;;;36.70;25.70;;;;;;4942585;28;20066;-80
2022/06/09 09:51:13;;;;;;;6.07;1.38;;;37.30;25.70;;;;;;4946579;29;20035;-80
2022/06/09 09:53:47;;;;;;;4.97;0.85;;;36.30;26.00;;;;;;4969019;28;20027;-80
2022/06/09 09:56:16;;;;;;;8.05;1.42;;;36.20;23.80;;;;;;4949067;28;20028;-80
2022/06/09 09:58:47;;;;;;;;;;;36.80;24.70;;;;;;4935498;29;20031;-80
2022/06/09 10:01:22;;;;;;;4.55;0.80;;;36.90;23.90;;;;;;4949332;28;20479;-80
2022/06/09 10:09:39;;;;;;;2.53;1.02;;;37.20;24.30;;;;;;4948501;29;20037;-81
2022/06/09 10:12:32;;;;;;;9.90;1.30;;;37.30;23.40;;;;;;4952389;28;20035;-81
2022/06/09 10:15:10;;;;;;;4.72;1.10;;;37.20;23.70;;;;;;4956589;28;20031;-81
2022/06/09 10:17:58;;;;;;;3.78;0.82;;;37.20;23.60;;;;;;4944094;28;20035;-81
2022/06/09 10:20:29;;;;;;;4.55;1.20;;;36.90;22.50;;;;;;4957900;28;20690;-81
2022/06/09 10:23:16;;;;;;;4.53;0.65;;;36.90;23.50;;;;;;4956763;28;20039;-81
2022/06/09 10:26:00;;;;;;;3.70;0.90;;;36.30;24.00;;;;;;4957009;28;20110;-81
2022/06/09 10:28:39;;;;;;;4.28;1.08;;;35.90;24.20;;;;;;4956671;28;20030;-81
2022/06/09 10:31:30;;;;;;;3.88;0.80;;;36.00;23.50;;;;;;4957670;28;20434;-81
2022/06/09 10:34:23;;;;;;;2.53;1.08;;;35.40;23.50;;;;;;4954580;29;20102;-81
2022/06/09 10:36:57;;;;;;;3.38;0.65;;;35.20;25.40;;;;;;4955340;28;20035;-81
2022/06/09 10:39:38;;;;;;;4.13;0.93;;;34.70;26.00;;;;;;4957850;28;20023;-80
2022/06/09 10:42:13;;;;;;;6.80;1.75;;;33.90;25.40;;;;;;4951528;29;20099;-80
2022/06/09 10:45:33;;;;;;;5.53;0.90;;;33.00;27.30;;;;;;4938737;29;20028;-80
2022/06/09 10:57:06;;;;;;;5.53;0.98;;;29.80;30.80;;;;;;4947039;29;20034;-80
2022/06/09 10:59:40;;;;;;;4.13;1.52;;;29.60;31.40;;;;;;4948904;28;20646;-80
2022/06/09 11:02:35;;;;;;;6.38;1.15;;;29.20;32.60;;;;;;4947657;29;20497;-80
2022/06/09 11:05:03;;;;;;;3.53;0.77;;;28.40;33.60;;;;;;4951601;28;20070;-80
2022/06/09 11:07:52;;;;;;;11.55;7.07;;;28.50;34.20;;;;;;4947996;29;20023;-80
2022/06/09 11:10:20;;;;;;;5.90;2.15;;;28.30;33.70;;;;;;4962844;28;20020;-80
2022/06/09 11:13:01;;;;;;;5.80;2.72;;;28.40;33.00;;;;;;4951630;29;20030;-80
2022/06/09 11:15:34;;;;;;;4.85;2.42;;;28.50;34.60;;;;;;4945316;29;20127;-80
2022/06/09 11:18:06;;;;;;;9.95;4.60;;;28.50;33.80;;;;;;4954711;29;20082;-80
2022/06/09 11:20:54;;;;;;;9.77;2.75;;;28.50;34.10;;;;;;4949214;28;20030;-80
2022/06/09 11:23:26;;;;;;;2.80;0.85;;;28.40;34.20;;;;;;4946117;29;20039;-79
2022/06/09 11:26:40;;;;;;;6.28;2.72;;;28.30;36.40;;;;;;4947748;29;20019;-82
2022/06/09 11:29:32;;;;;;;34.85;22.95;;;28.40;35.60;;;;;;4961504;28;20161;-80
2022/06/09 11:32:02;;;;;;;11.20;5.90;;;28.20;35.10;;;;;;4951228;29;20023;-81
2022/06/09 11:34:55;;;;;;;6.65;1.40;;;28.20;35.30;;;;;;4947655;29;20031;-81
2022/06/09 11:37:29;;;;;;;6.38;0.98;;;28.30;36.40;;;;;;4953360;28;20112;-81
2022/06/09 11:40:23;;;;;;;3.90;0.95;;;27.90;35.20;;;;;;4947823;28;20065;-81
2022/06/09 11:43:17;;;;;;;2.42;0.70;;;27.30;36.50;;;;;;4949745;29;20063;-81
2022/06/09 11:45:47;;;;;;;4.70;0.80;;;27.60;36.30;;;;;;4948846;29;20068;-81
2022/06/09 11:48:37;;;;;;;2.15;0.82;;;28.20;36.20;;;;;;4945605;28;20050;-81
2022/06/09 11:51:04;;;;;;;5.57;1.05;;;28.10;36.30;;;;;;4958148;28;20051;-81
2022/06/09 11:53:46;;;;;;;5.50;1.02;;;28.20;35.40;;;;;;4960972;28;20027;-81
2022/06/09 11:56:45;;;;;;;5.75;1.17;;;28.30;36.50;;;;;;4947572;29;20020;-82
2022/06/09 11:59:55;;;;;;;3.85;0.70;;;27.90;35.30;;;;;;4968541;28;20023;-82
2022/06/09 12:02:39;;;;;;;3.95;0.65;;;27.30;35.70;;;;;;4953901;29;20114;-82
2022/06/09 12:05:26;;;;;;;2.67;1.30;;;27.30;38.40;;;;;;4953120;28;20556;-81
2022/06/09 12:08:10;;;;;;;6.40;1.42;;;26.80;37.60;;;;;;4949358;29;20027;-81
2022/06/09 12:11:02;;;;;;;2.58;0.70;;;27.20;38.00;;;;;;4948135;29;20087;-81
2022/06/09 12:13:47;;;;;;;7.07;0.98;;;27.30;39.00;;;;;;4946944;29;20118;-81
2022/06/09 12:16:52;;;;;;;4.47;0.75;;;27.50;37.60;;;;;;4950196;29;20035;-81
2022/06/09 12:19:25;;;;;;;2.45;0.77;;;27.60;36.80;;;;;;4946963;29;20029;-81
2022/06/09 12:21:55;;;;;;;7.70;1.00;;;27.20;37.60;;;;;;4947981;29;20041;-81
2022/06/09 12:24:24;;;;;;;4.97;1.45;;;27.50;37.50;;;;;;4959475;28;20015;-81
2022/06/09 12:26:55;;;;;;;3.95;1.15;;;27.70;37.20;;;;;;4948031;29;20411;-81
2022/06/09 12:29:43;;;;;;;4.40;1.10;;;27.80;36.70;;;;;;4953796;29;20070;-81
2022/06/09 12:32:09;;;;;;;3.97;0.68;;;27.50;37.10;;;;;;4963397;28;20028;-81
2022/06/09 12:34:38;;;;;;;2.92;0.73;;;27.10;37.40;;;;;;4947296;29;20035;-81
2022/06/09 12:37:04;;;;;;;3.92;1.27;;;26.90;37.40;;;;;;4944219;28;20545;-81
2022/06/09 12:39:44;;;;;;;5.00;0.98;;;26.50;38.70;;;;;;4946301;28;20854;-82
2022/06/09 12:42:24;;;;;;;2.58;0.80;;;26.40;39.40;;;;;;4959987;28;20103;-82
2022/06/09 12:45:11;;;;;;;6.03;0.95;;;26.30;39.70;;;;;;4946922;29;20035;-81
2022/06/09 12:47:50;;;;;;;5.00;0.93;;;26.50;41.50;;;;;;4948399;29;20034;-82
2022/06/09 12:50:39;;;;;;;3.22;0.65;;;26.70;39.20;;;;;;4949964;29;20023;-82
2022/06/09 12:53:07;;;;;;;2.47;0.50;;;26.60;39.40;;;;;;4962230;28;20035;-81
2022/06/09 12:55:38;;;;;;;4.00;0.70;;;26.50;39.60;;;;;;4947649;28;20035;-81
2022/06/09 12:58:13;;;;;;;3.95;0.77;;;26.40;39.90;;;;;;4946594;29;20034;-81
2022/06/09 13:00:45;;;;;;;3.22;0.90;;;26.30;39.80;;;;;;4944541;28;20031;-81
2022/06/09 13:03:23;;;;;;;4.45;1.10;;;26.20;40.70;;;;;;4946375;29;20027;-81
2022/06/09 13:05:50;;;;;;;4.38;0.80;;;26.70;39.30;;;;;;4945378;29;20055;-82
2022/06/09 13:08:23;;;;;;;4.57;1.00;;;27.00;40.00;;;;;;4945152;29;20062;-81
2022/06/09 13:11:06;;;;;;;2.85;0.52;;;26.90;39.40;;;;;;4945326;29;20011;-82
2022/06/09 13:13:41;;;;;;;6.88;0.90;;;26.40;39.70;;;;;;4946123;29;20038;-82
2022/06/09 13:16:14;;;;;;;7.13;0.88;;;26.30;40.00;;;;;;4946389;29;20035;-81
2022/06/09 13:18:47;;;;;;;2.58;0.60;;;26.80;40.30;;;;;;4945391;29;20063;-81
2022/06/09 13:21:20;;;;;;;2.05;0.50;;;26.90;40.90;;;;;;4946626;29;20019;-81
2022/06/09 13:23:50;;;;;;;2.42;0.70;;;27.10;40.50;;;;;;4945184;29;20019;-82
2022/06/09 13:26:22;;;;;;;2.63;0.70;;;27.10;39.30;;;;;;4946838;28;20066;-82
2022/06/09 13:28:53;;;;;;;3.00;0.80;;;27.10;39.40;;;;;;4957143;28;20079;-80
2022/06/09 13:31:40;;;;;;;2.75;0.68;;;27.00;39.40;;;;;;4936350;29;20024;-81
2022/06/09 13:34:22;;;;;;;4.38;1.35;;;26.90;40.10;;;;;;4943932;29;20034;-82